Pagina principale
METAR-TAF:

METAR-TAF

Aeroporti :

Aeroporto di Torino-Aeritalia

Torino, Italia

latitudine: 45-05-20N, longitudine: 007-36-20E, altezza: 288 m

Osservazione

Il bollettino è stato emesso 15 ore e 35 minuti fa, alle 15:50 UTC
Vento 3 kt da nord/nord-est, variando fra nord e est/nord-est
Temperature 7°C
Umidità 81%
Pressione 1003 hPa
Visibilità 10 km o più
Nubi sparse ad un'altezza di 1500 ft

METAR: LIMA 171550Z 03003KT 350V070 9999 SCT015 07/04 Q1003

Ora: 08:25 (07:25 UTC)


TAF: mancante

Osservazioni e previsioni meteorologiche di più di 4000 aeroporti (messaggi METAR e TAF).

Le stazioni disponibili sono rappresentate dai dischi gialli e rossi sulla carta.

Puntare il mouse per vedere il nome della stazione.

Clicca sopra per visualizzare le osservazioni e previsioni meteorologiche.

Per cambiare la mappa : fare clic sui pulsanti verdi con una croce nera per ingrandire, il pulsante verde con un trattino per diminuire, o sulla freccia verde per le mappe adiacenti.


METAR-TAF: